Time;durP1;ratioP1;P1;durP2;ratioP2;P2;SDS_P1;SDS_P2;PMS_P1;PMS_P2;Temp;Humidity;BMP_temperature;BMP_pressure;BME280_temperature;BME280_humidity;BME280_pressure;Samples;Min_cycle;Max_cycle;Signal;HPM_P1;HPM_P2
2023/07/16 00:00:20;;;;;;;2.88;1.65;;;;;;;;;;5038441;28;20611;-85
2023/07/16 00:02:47;;;;;;;4.00;2.20;;;;;;;;;;5051938;28;20627;-85
2023/07/16 00:05:14;;;;;;;2.50;2.25;;;;;;;;;;5053726;28;20241;-85
2023/07/16 00:07:42;;;;;;;2.55;1.85;;;;;;;;;;5044667;28;20230;-85
2023/07/16 00:10:10;;;;;;;4.38;1.88;;;;;;;;;;5061609;28;20236;-85
2023/07/16 00:12:37;;;;;;;2.25;1.90;;;;;;;;;;5045508;28;20245;-85
2023/07/16 00:15:06;;;;;;;2.65;2.22;;;;;;;;;;5060134;28;20233;-84
2023/07/16 00:17:33;;;;;;;4.53;1.88;;;;;;;;;;5052757;28;20241;-84
2023/07/16 00:20:00;;;;;;;2.00;1.77;;;;;;;;;;5059561;28;20292;-86
2023/07/16 00:22:28;;;;;;;2.90;1.95;;;;;;;;;;5060262;28;20206;-86
2023/07/16 00:24:56;;;;;;;3.75;2.00;;;;;;;;;;5044710;28;20206;-86
2023/07/16 00:27:23;;;;;;;2.80;2.20;;;;;;;;;;5068811;28;20263;-86
2023/07/16 00:29:50;;;;;;;2.42;1.80;;;;;;;;;;5059406;28;20211;-85
2023/07/16 00:32:17;;;;;;;3.47;2.00;;;;;;;;;;5044866;28;20210;-86
2023/07/16 00:34:44;;;;;;;3.00;2.03;;;;;;;;;;5045363;28;20712;-85
2023/07/16 00:37:11;;;;;;;7.07;2.58;;;;;;;;;;5061586;28;20206;-86
2023/07/16 00:39:38;;;;;;;3.92;2.17;;;;;;;;;;5050094;28;20234;-85
2023/07/16 00:42:07;;;;;;;4.82;2.28;;;;;;;;;;5057171;28;20664;-86
2023/07/16 00:44:34;;;;;;;3.15;2.15;;;;;;;;;;5047244;28;20237;-86
2023/07/16 00:47:01;;;;;;;2.38;2.20;;;;;;;;;;5040903;28;20202;-85
2023/07/16 00:49:28;;;;;;;3.72;2.30;;;;;;;;;;5058425;28;20237;-85
2023/07/16 00:51:56;;;;;;;2.67;1.80;;;;;;;;;;5059317;28;20205;-85
2023/07/16 00:54:23;;;;;;;3.72;1.90;;;;;;;;;;5060381;28;20734;-85
2023/07/16 00:56:51;;;;;;;2.47;1.77;;;;;;;;;;5048563;28;20260;-86
2023/07/16 00:59:19;;;;;;;2.92;1.80;;;;;;;;;;5056241;28;20741;-86
2023/07/16 01:01:46;;;;;;;1.70;1.60;;;;;;;;;;5064600;28;20209;-86
2023/07/16 01:04:13;;;;;;;2.67;1.85;;;;;;;;;;5065221;28;20241;-85
2023/07/16 01:06:41;;;;;;;2.60;1.67;;;;;;;;;;5058729;28;20213;-86
2023/07/16 01:09:09;;;;;;;3.72;1.50;;;;;;;;;;5055920;28;20283;-84
2023/07/16 01:11:37;;;;;;;1.67;1.58;;;;;;;;;;5064640;28;20201;-84
2023/07/16 01:14:04;;;;;;;4.35;2.00;;;;;;;;;;5055781;28;20230;-83
2023/07/16 01:16:33;;;;;;;1.50;1.23;;;;;;;;;;5064132;28;20210;-83
2023/07/16 01:19:00;;;;;;;4.05;1.55;;;;;;;;;;5054969;28;20256;-86
2023/07/16 01:21:31;;;;;;;3.90;3.17;;;;;;;;;;5055001;28;20194;-83
2023/07/16 01:24:06;;;;;;;2.28;1.52;;;;;;;;;;5054306;28;20230;-82
2023/07/16 01:26:54;;;;;;;3.63;1.55;;;;;;;;;;5061920;28;20236;-82
2023/07/16 01:29:34;;;;;;;1.92;1.80;;;;;;;;;;5055615;28;20226;-83
2023/07/16 01:32:02;;;;;;;2.63;1.58;;;;;;;;;;5051666;28;20202;-83
2023/07/16 01:34:33;;;;;;;3.72;1.63;;;;;;;;;;5063308;28;20240;-83
2023/07/16 01:37:00;;;;;;;2.50;1.67;;;;;;;;;;5064301;28;20204;-84
2023/07/16 01:39:27;;;;;;;2.67;1.67;;;;;;;;;;5062168;28;20233;-83
2023/07/16 01:41:54;;;;;;;1.67;1.38;;;;;;;;;;5058142;28;20248;-82
2023/07/16 01:44:21;;;;;;;3.90;1.85;;;;;;;;;;5059139;28;20230;-83
2023/07/16 01:46:53;;;;;;;1.40;1.30;;;;;;;;;;5055451;28;20206;-83
2023/07/16 01:49:20;;;;;;;1.60;1.30;;;;;;;;;;5063770;28;20230;-83
2023/07/16 01:51:47;;;;;;;3.58;1.60;;;;;;;;;;5056310;28;20206;-83
2023/07/16 01:54:14;;;;;;;4.10;1.60;;;;;;;;;;5055152;28;20749;-83
2023/07/16 01:56:41;;;;;;;1.55;1.45;;;;;;;;;;5055973;28;20206;-83
2023/07/16 01:59:08;;;;;;;3.45;1.65;;;;;;;;;;5060200;28;20233;-86
2023/07/16 02:01:35;;;;;;;5.03;1.80;;;;;;;;;;5058894;28;20732;-84
2023/07/16 02:07:28;;;;;;;2.38;1.90;;;;;;;;;;5049922;28;20166;-83
2023/07/16 02:09:56;;;;;;;1.77;1.42;;;;;;;;;;5053062;28;20234;-84
2023/07/16 02:12:23;;;;;;;1.75;1.50;;;;;;;;;;5054842;28;20227;-85
2023/07/16 02:14:51;;;;;;;1.50;1.40;;;;;;;;;;5055135;28;20226;-85
2023/07/16 02:17:18;;;;;;;4.50;1.90;;;;;;;;;;5050108;28;20191;-84
2023/07/16 02:19:45;;;;;;;2.22;1.63;;;;;;;;;;5044662;28;20683;-84
2023/07/16 02:22:12;;;;;;;3.05;1.67;;;;;;;;;;5054810;28;20205;-84
2023/07/16 02:24:39;;;;;;;2.85;1.60;;;;;;;;;;5055311;28;20224;-84
2023/07/16 02:27:07;;;;;;;2.00;1.63;;;;;;;;;;5055445;28;20198;-84
2023/07/16 02:29:35;;;;;;;2.35;1.80;;;;;;;;;;5054875;28;20704;-84
2023/07/16 02:32:02;;;;;;;1.90;1.50;;;;;;;;;;5054941;28;20691;-85
2023/07/16 02:34:29;;;;;;;2.80;1.80;;;;;;;;;;5054349;28;20229;-84
2023/07/16 02:36:56;;;;;;;2.95;1.67;;;;;;;;;;5055334;28;20199;-84
2023/07/16 02:39:23;;;;;;;4.70;1.63;;;;;;;;;;5058769;28;20229;-84
2023/07/16 02:41:50;;;;;;;3.60;1.98;;;;;;;;;;5057847;28;20205;-84
2023/07/16 02:44:18;;;;;;;4.18;1.50;;;;;;;;;;5068244;28;20222;-84
2023/07/16 02:46:45;;;;;;;3.38;1.67;;;;;;;;;;5054520;28;20210;-84
2023/07/16 02:49:12;;;;;;;2.40;1.50;;;;;;;;;;5058792;28;20227;-84
2023/07/16 02:51:39;;;;;;;2.80;1.52;;;;;;;;;;5057645;28;20214;-85
2023/07/16 02:54:06;;;;;;;6.60;1.77;;;;;;;;;;5053323;28;20700;-84
2023/07/16 02:56:34;;;;;;;3.72;1.52;;;;;;;;;;5053710;28;20690;-84
2023/07/16 02:59:01;;;;;;;3.78;1.60;;;;;;;;;;5052995;28;20233;-84
2023/07/16 03:01:29;;;;;;;4.15;1.88;;;;;;;;;;5054466;28;20202;-84
2023/07/16 03:03:56;;;;;;;2.25;1.58;;;;;;;;;;5052967;28;20248;-83
2023/07/16 03:06:24;;;;;;;3.17;1.70;;;;;;;;;;5053347;28;20198;-83
2023/07/16 03:08:51;;;;;;;4.28;1.67;;;;;;;;;;5052771;28;20230;-84
2023/07/16 03:11:18;;;;;;;5.28;2.08;;;;;;;;;;5055111;28;20205;-83
2023/07/16 03:13:45;;;;;;;2.60;1.92;;;;;;;;;;5061744;28;20230;-84
2023/07/16 03:16:12;;;;;;;5.57;1.63;;;;;;;;;;5054434;28;20201;-85
2023/07/16 03:18:40;;;;;;;3.08;2.50;;;;;;;;;;5053637;28;20240;-85
2023/07/16 03:21:07;;;;;;;2.95;1.58;;;;;;;;;;5053961;28;20205;-85
2023/07/16 03:23:34;;;;;;;4.28;1.73;;;;;;;;;;5053500;28;20225;-85
2023/07/16 03:26:02;;;;;;;4.22;2.00;;;;;;;;;;5053782;28;20208;-84
2023/07/16 03:28:29;;;;;;;3.92;2.15;;;;;;;;;;5053120;28;20236;-86
2023/07/16 03:30:56;;;;;;;4.07;1.80;;;;;;;;;;5053532;28;20206;-85
2023/07/16 03:33:23;;;;;;;2.63;2.00;;;;;;;;;;5052902;28;20233;-85
2023/07/16 03:35:51;;;;;;;7.15;1.80;;;;;;;;;;5053774;28;20835;-84
2023/07/16 03:38:18;;;;;;;5.47;2.13;;;;;;;;;;5053302;28;20229;-85
2023/07/16 03:40:48;;;;;;;3.13;1.98;;;;;;;;;;5054073;28;20204;-85
2023/07/16 03:43:15;;;;;;;3.65;1.63;;;;;;;;;;5061648;28;20352;-85
2023/07/16 03:45:42;;;;;;;1.80;1.70;;;;;;;;;;5054061;28;20194;-84
2023/07/16 03:48:09;;;;;;;3.25;1.77;;;;;;;;;;5053292;28;20229;-84
2023/07/16 03:50:36;;;;;;;9.40;2.47;;;;;;;;;;5053468;28;20217;-85
2023/07/16 03:53:05;;;;;;;5.38;1.85;;;;;;;;;;5053145;28;20236;-84
2023/07/16 03:55:32;;;;;;;5.60;1.92;;;;;;;;;;5053690;28;20225;-85
2023/07/16 03:57:59;;;;;;;4.13;2.05;;;;;;;;;;5053264;28;20247;-85
2023/07/16 04:00:26;;;;;;;5.35;1.95;;;;;;;;;;5053876;28;20198;-85
2023/07/16 04:02:53;;;;;;;2.92;1.80;;;;;;;;;;5052942;28;20237;-83
2023/07/16 04:05:20;;;;;;;4.63;2.38;;;;;;;;;;5052662;28;20191;-84
2023/07/16 04:07:47;;;;;;;3.53;1.98;;;;;;;;;;5052140;28;20246;-84
2023/07/16 04:10:15;;;;;;;2.13;1.58;;;;;;;;;;5053439;28;20202;-85
2023/07/16 04:12:43;;;;;;;9.27;2.30;;;;;;;;;;5058552;28;20238;-84
2023/07/16 04:15:11;;;;;;;5.22;1.80;;;;;;;;;;5057757;28;20217;-85
2023/07/16 04:17:38;;;;;;;3.08;1.45;;;;;;;;;;5057335;28;20299;-85
2023/07/16 04:20:06;;;;;;;2.65;2.00;;;;;;;;;;5057516;28;20203;-85
2023/07/16 04:22:33;;;;;;;3.47;1.73;;;;;;;;;;5057265;28;20248;-86
2023/07/16 04:25:00;;;;;;;4.15;2.10;;;;;;;;;;5057482;28;20198;-85
2023/07/16 04:27:28;;;;;;;5.97;2.15;;;;;;;;;;5057177;28;20208;-85
2023/07/16 04:29:55;;;;;;;4.25;1.80;;;;;;;;;;5056934;28;20660;-85
2023/07/16 04:32:23;;;;;;;3.05;2.30;;;;;;;;;;5056823;28;20194;-84
2023/07/16 04:34:50;;;;;;;4.53;1.95;;;;;;;;;;5057314;28;20229;-85
2023/07/16 04:37:17;;;;;;;3.13;1.70;;;;;;;;;;5056522;28;20198;-85
2023/07/16 04:39:44;;;;;;;5.88;1.90;;;;;;;;;;5065622;28;20213;-86
2023/07/16 04:42:11;;;;;;;5.18;1.90;;;;;;;;;;5056726;28;20213;-84
2023/07/16 04:44:40;;;;;;;5.22;2.20;;;;;;;;;;5057183;28;20206;-84
2023/07/16 04:47:07;;;;;;;2.35;1.48;;;;;;;;;;5057228;28;20205;-86
2023/07/16 04:49:35;;;;;;;2.72;1.52;;;;;;;;;;5056675;28;20227;-85
2023/07/16 04:52:02;;;;;;;2.97;2.47;;;;;;;;;;5065027;28;20205;-85
2023/07/16 04:54:29;;;;;;;4.45;2.30;;;;;;;;;;5064391;28;20221;-84
2023/07/16 04:56:56;;;;;;;3.13;1.85;;;;;;;;;;5057030;28;20206;-85
2023/07/16 04:59:23;;;;;;;6.28;1.77;;;;;;;;;;5056459;28;20206;-85
2023/07/16 05:01:51;;;;;;;3.20;1.83;;;;;;;;;;5056813;28;20209;-84
2023/07/16 05:04:19;;;;;;;4.75;2.20;;;;;;;;;;5068660;28;20608;-84
2023/07/16 05:06:46;;;;;;;6.03;1.83;;;;;;;;;;5059163;28;20206;-84
2023/07/16 05:09:13;;;;;;;4.75;1.85;;;;;;;;;;5063249;28;20233;-85
2023/07/16 05:11:40;;;;;;;4.28;2.53;;;;;;;;;;5072394;28;20213;-86
2023/07/16 05:14:07;;;;;;;6.53;2.13;;;;;;;;;;5059371;28;20248;-85
2023/07/16 05:16:34;;;;;;;3.05;2.00;;;;;;;;;;5069883;28;20213;-85
2023/07/16 05:19:02;;;;;;;3.72;1.90;;;;;;;;;;5057657;28;20234;-85
2023/07/16 05:21:29;;;;;;;5.28;2.03;;;;;;;;;;5067396;28;20202;-85
2023/07/16 05:23:56;;;;;;;2.90;1.52;;;;;;;;;;5057732;28;20241;-85
2023/07/16 05:26:23;;;;;;;4.35;2.10;;;;;;;;;;5056540;28;20194;-86
2023/07/16 05:28:50;;;;;;;2.42;1.70;;;;;;;;;;5056693;28;20243;-86
2023/07/16 05:31:17;;;;;;;3.45;1.90;;;;;;;;;;5076849;28;20210;-85
2023/07/16 05:33:44;;;;;;;4.93;1.93;;;;;;;;;;5067987;28;20237;-85
2023/07/16 05:36:13;;;;;;;2.20;2.00;;;;;;;;;;5060374;28;20229;-85
2023/07/16 05:38:40;;;;;;;2.63;1.80;;;;;;;;;;5060209;28;20233;-85
2023/07/16 05:41:07;;;;;;;5.68;2.10;;;;;;;;;;5064174;28;20665;-86
2023/07/16 05:43:34;;;;;;;4.63;2.30;;;;;;;;;;5062189;28;20238;-86
2023/07/16 05:46:01;;;;;;;2.92;2.22;;;;;;;;;;5065793;28;20197;-84
2023/07/16 05:48:28;;;;;;;2.72;1.65;;;;;;;;;;5055299;28;20241;-85
2023/07/16 05:50:55;;;;;;;4.22;2.33;;;;;;;;;;5064274;28;20571;-85
2023/07/16 05:53:24;;;;;;;11.52;2.20;;;;;;;;;;5055322;28;20260;-85
2023/07/16 05:55:51;;;;;;;4.47;2.00;;;;;;;;;;5072474;28;20226;-86
2023/07/16 05:58:19;;;;;;;7.05;2.28;;;;;;;;;;5055608;28;20283;-86
2023/07/16 06:00:46;;;;;;;5.18;2.08;;;;;;;;;;5055714;28;20215;-85
2023/07/16 06:03:13;;;;;;;1.92;1.75;;;;;;;;;;5046449;28;20849;-85
2023/07/16 06:05:40;;;;;;;4.57;2.15;;;;;;;;;;5054430;28;20202;-85
2023/07/16 06:08:07;;;;;;;3.00;2.15;;;;;;;;;;5054281;28;20237;-85
2023/07/16 06:10:37;;;;;;;2.55;2.10;;;;;;;;;;5061531;28;20270;-86
2023/07/16 06:13:04;;;;;;;4.07;2.15;;;;;;;;;;5066990;28;20257;-86
2023/07/16 06:15:31;;;;;;;4.10;2.10;;;;;;;;;;5060525;28;20245;-85
2023/07/16 06:17:58;;;;;;;4.90;2.50;;;;;;;;;;5063642;28;20233;-85
2023/07/16 06:20:25;;;;;;;5.80;2.22;;;;;;;;;;5068905;28;20212;-86
2023/07/16 06:22:52;;;;;;;4.03;1.83;;;;;;;;;;5065932;28;20241;-85
2023/07/16 06:25:19;;;;;;;4.10;2.17;;;;;;;;;;5055670;28;20197;-86
2023/07/16 06:27:49;;;;;;;2.15;1.95;;;;;;;;;;5063838;28;20229;-85
2023/07/16 06:30:16;;;;;;;4.20;2.08;;;;;;;;;;5067294;28;20205;-86
2023/07/16 06:32:43;;;;;;;4.25;2.05;;;;;;;;;;5061302;28;20237;-85
2023/07/16 06:35:10;;;;;;;4.50;2.25;;;;;;;;;;5073567;28;20234;-83
2023/07/16 06:37:37;;;;;;;4.93;2.30;;;;;;;;;;5059913;28;20234;-85
2023/07/16 06:40:05;;;;;;;5.07;2.13;;;;;;;;;;5057292;28;20202;-84
2023/07/16 06:42:32;;;;;;;4.35;2.20;;;;;;;;;;5066784;28;20234;-84
2023/07/16 06:45:01;;;;;;;3.83;2.35;;;;;;;;;;5066669;28;20205;-84
2023/07/16 06:47:28;;;;;;;3.50;1.92;;;;;;;;;;5056276;28;20239;-85
2023/07/16 06:49:55;;;;;;;3.05;2.03;;;;;;;;;;5052296;28;20195;-85
2023/07/16 06:52:22;;;;;;;3.42;1.92;;;;;;;;;;5065192;28;20768;-85
2023/07/16 06:54:49;;;;;;;4.70;2.30;;;;;;;;;;5059697;28;20210;-85
2023/07/16 06:57:16;;;;;;;3.08;1.73;;;;;;;;;;5062746;28;20198;-86
2023/07/16 06:59:44;;;;;;;5.50;2.30;;;;;;;;;;5062121;28;20212;-85
2023/07/16 07:02:12;;;;;;;3.60;2.13;;;;;;;;;;5055466;28;20198;-86
2023/07/16 07:04:39;;;;;;;4.28;1.83;;;;;;;;;;5064653;28;20735;-83
2023/07/16 07:07:07;;;;;;;2.85;1.83;;;;;;;;;;5063053;28;20206;-85
2023/07/16 07:09:35;;;;;;;4.28;2.10;;;;;;;;;;5067574;28;20217;-84
2023/07/16 07:12:02;;;;;;;3.65;1.77;;;;;;;;;;5058739;28;20207;-86
2023/07/16 07:14:29;;;;;;;4.85;2.05;;;;;;;;;;5066242;28;20225;-86
2023/07/16 07:16:56;;;;;;;2.80;2.13;;;;;;;;;;5074025;28;20201;-85
2023/07/16 07:19:24;;;;;;;5.55;1.90;;;;;;;;;;5053273;28;20236;-88
2023/07/16 07:21:52;;;;;;;5.03;1.98;;;;;;;;;;5053409;28;20209;-83
2023/07/16 07:24:20;;;;;;;3.25;2.10;;;;;;;;;;5062634;28;20232;-82
2023/07/16 07:26:47;;;;;;;7.43;2.10;;;;;;;;;;5074182;28;20197;-84
2023/07/16 07:29:14;;;;;;;3.67;2.10;;;;;;;;;;5053717;28;20226;-83
2023/07/16 07:31:41;;;;;;;4.95;2.20;;;;;;;;;;5054811;28;20570;-84
2023/07/16 07:34:08;;;;;;;2.92;1.90;;;;;;;;;;5072850;28;20237;-86
2023/07/16 07:36:36;;;;;;;3.92;2.03;;;;;;;;;;5065483;28;20221;-85
2023/07/16 07:39:03;;;;;;;3.08;1.77;;;;;;;;;;5056195;28;20245;-86
2023/07/16 07:41:31;;;;;;;4.05;1.90;;;;;;;;;;5065908;28;20217;-85
2023/07/16 07:43:58;;;;;;;6.32;2.20;;;;;;;;;;5056302;28;20328;-86
2023/07/16 07:46:25;;;;;;;3.72;1.88;;;;;;;;;;5072065;28;20210;-85
2023/07/16 07:48:53;;;;;;;4.20;2.08;;;;;;;;;;5057319;28;20240;-84
2023/07/16 07:51:20;;;;;;;2.75;1.83;;;;;;;;;;5069933;28;20202;-85
2023/07/16 07:53:49;;;;;;;5.43;2.20;;;;;;;;;;5064166;28;20233;-85
2023/07/16 07:56:16;;;;;;;5.22;2.20;;;;;;;;;;5073812;28;20228;-84
2023/07/16 07:58:43;;;;;;;7.47;2.75;;;;;;;;;;5056713;28;20232;-84
2023/07/16 08:01:10;;;;;;;2.92;2.00;;;;;;;;;;5047044;28;20211;-85
2023/07/16 08:03:37;;;;;;;3.50;2.20;;;;;;;;;;5065100;28;20236;-84
2023/07/16 08:06:05;;;;;;;6.65;3.33;;;;;;;;;;5068409;28;20201;-84
2023/07/16 08:08:38;;;;;;;2.45;2.10;;;;;;;;;;5062333;28;20236;-84
2023/07/16 08:11:07;;;;;;;2.42;2.08;;;;;;;;;;5064176;28;20204;-84
2023/07/16 08:13:34;;;;;;;3.83;2.20;;;;;;;;;;5063144;28;20230;-83
2023/07/16 08:16:01;;;;;;;4.53;2.25;;;;;;;;;;5065104;28;20237;-83
2023/07/16 08:18:28;;;;;;;6.82;2.53;;;;;;;;;;5071303;28;20245;-83
2023/07/16 08:20:55;;;;;;;3.63;1.85;;;;;;;;;;5056364;28;20206;-83
2023/07/16 08:23:22;;;;;;;5.63;2.20;;;;;;;;;;5064224;28;20229;-82
2023/07/16 08:25:50;;;;;;;4.00;2.00;;;;;;;;;;5062586;28;20220;-83
2023/07/16 08:28:18;;;;;;;4.03;1.70;;;;;;;;;;5066302;28;20772;-83
2023/07/16 08:30:48;;;;;;;8.70;2.17;;;;;;;;;;5062353;28;20216;-82
2023/07/16 08:33:15;;;;;;;3.20;1.73;;;;;;;;;;5063747;28;20283;-83
2023/07/16 08:35:43;;;;;;;5.43;2.75;;;;;;;;;;5054095;28;20222;-82
2023/07/16 08:38:10;;;;;;;4.00;2.53;;;;;;;;;;5053650;28;20272;-82
2023/07/16 08:40:37;;;;;;;5.88;2.00;;;;;;;;;;5062437;28;20428;-82
2023/07/16 08:43:04;;;;;;;6.18;2.30;;;;;;;;;;5070647;28;20248;-82
2023/07/16 08:45:38;;;;;;;7.75;2.55;;;;;;;;;;5073680;28;20197;-82
2023/07/16 08:48:05;;;;;;;8.73;2.30;;;;;;;;;;5067308;28;20594;-84
2023/07/16 08:50:32;;;;;;;4.60;2.30;;;;;;;;;;5063127;28;20205;-83
2023/07/16 08:52:59;;;;;;;3.22;2.22;;;;;;;;;;5074577;28;20241;-83
2023/07/16 08:55:26;;;;;;;4.18;1.85;;;;;;;;;;5068089;28;20566;-84
2023/07/16 08:57:54;;;;;;;2.97;2.10;;;;;;;;;;5058389;28;20245;-84
2023/07/16 09:00:22;;;;;;;3.58;2.13;;;;;;;;;;5067070;28;20209;-83
2023/07/16 09:02:51;;;;;;;4.15;2.67;;;;;;;;;;5056177;28;20234;-82
2023/07/16 09:05:21;;;;;;;3.50;1.80;;;;;;;;;;5068839;28;20213;-83
2023/07/16 09:07:48;;;;;;;5.38;2.22;;;;;;;;;;5070736;28;20233;-82
2023/07/16 09:10:15;;;;;;;3.05;2.17;;;;;;;;;;5071534;28;20675;-83
2023/07/16 09:12:43;;;;;;;4.72;1.80;;;;;;;;;;5074225;28;20581;-82
2023/07/16 09:15:10;;;;;;;4.40;2.15;;;;;;;;;;5057971;28;20198;-83
2023/07/16 09:17:38;;;;;;;4.63;2.20;;;;;;;;;;5064929;28;20233;-82
2023/07/16 09:20:08;;;;;;;3.33;2.08;;;;;;;;;;5063731;28;20210;-84
2023/07/16 09:22:35;;;;;;;5.32;2.05;;;;;;;;;;5068988;28;20244;-84
2023/07/16 09:25:02;;;;;;;5.18;1.80;;;;;;;;;;5075483;28;20198;-84
2023/07/16 09:27:30;;;;;;;2.97;2.00;;;;;;;;;;5074041;28;20703;-84
2023/07/16 09:29:58;;;;;;;3.42;2.38;;;;;;;;;;5073638;28;20209;-82
2023/07/16 09:32:34;;;;;;;2.95;1.92;;;;;;;;;;5049789;28;20208;-83
2023/07/16 09:35:01;;;;;;;4.05;1.73;;;;;;;;;;5074247;28;20205;-82
2023/07/16 09:37:30;;;;;;;3.40;1.95;;;;;;;;;;5070150;28;20229;-83
2023/07/16 09:39:57;;;;;;;4.00;1.90;;;;;;;;;;5068771;28;20220;-80
2023/07/16 09:42:24;;;;;;;4.25;2.40;;;;;;;;;;5073321;28;20593;-81
2023/07/16 09:44:54;;;;;;;3.13;1.95;;;;;;;;;;5072425;28;20543;-81
2023/07/16 09:47:21;;;;;;;4.13;2.03;;;;;;;;;;5067335;28;20263;-81
2023/07/16 09:49:48;;;;;;;4.13;2.00;;;;;;;;;;5065880;28;20213;-81
2023/07/16 09:52:15;;;;;;;5.32;2.00;;;;;;;;;;5056506;28;20676;-83
2023/07/16 09:54:46;;;;;;;4.25;1.77;;;;;;;;;;5073124;28;20205;-82
2023/07/16 09:57:13;;;;;;;4.47;2.28;;;;;;;;;;5071034;28;20253;-83
2023/07/16 09:59:41;;;;;;;4.90;2.20;;;;;;;;;;5067565;28;20254;-82
2023/07/16 10:02:08;;;;;;;3.30;1.80;;;;;;;;;;5056109;28;20600;-82
2023/07/16 10:04:39;;;;;;;4.07;1.98;;;;;;;;;;5061229;28;20706;-82
2023/07/16 10:07:06;;;;;;;4.22;1.83;;;;;;;;;;5072205;28;20202;-81
2023/07/16 10:09:34;;;;;;;6.57;1.77;;;;;;;;;;5071404;28;20237;-82
2023/07/16 10:12:16;;;;;;;5.65;2.15;;;;;;;;;;5066885;28;20232;-83
2023/07/16 10:14:44;;;;;;;2.65;1.90;;;;;;;;;;5063850;28;20753;-82
2023/07/16 10:17:15;;;;;;;6.38;2.40;;;;;;;;;;5059552;28;20229;-84
2023/07/16 10:19:49;;;;;;;4.32;2.10;;;;;;;;;;5059624;28;20224;-83
2023/07/16 10:22:16;;;;;;;2.22;1.85;;;;;;;;;;5061753;28;20259;-83
2023/07/16 10:24:43;;;;;;;5.22;2.15;;;;;;;;;;5055855;28;20213;-82
2023/07/16 10:27:10;;;;;;;2.78;2.00;;;;;;;;;;5055779;28;20243;-82
2023/07/16 10:29:40;;;;;;;3.80;1.95;;;;;;;;;;5050668;28;20202;-81
2023/07/16 10:32:08;;;;;;;3.05;1.98;;;;;;;;;;5065851;28;20790;-82
2023/07/16 10:34:36;;;;;;;2.67;2.00;;;;;;;;;;5065061;28;20251;-81
2023/07/16 10:37:04;;;;;;;4.88;1.90;;;;;;;;;;5071888;28;20231;-80
2023/07/16 10:39:31;;;;;;;5.35;2.00;;;;;;;;;;5059759;28;20222;-83
2023/07/16 10:41:58;;;;;;;2.65;1.85;;;;;;;;;;5065157;28;20297;-82
2023/07/16 10:44:26;;;;;;;4.15;1.73;;;;;;;;;;5064590;28;20239;-84
2023/07/16 10:46:55;;;;;;;3.53;2.03;;;;;;;;;;5073040;28;20217;-82
2023/07/16 10:49:28;;;;;;;2.10;1.85;;;;;;;;;;5073163;28;20666;-83
2023/07/16 10:51:55;;;;;;;3.35;1.85;;;;;;;;;;5062855;28;20451;-82
2023/07/16 10:54:24;;;;;;;3.67;2.00;;;;;;;;;;5051969;28;20249;-84
2023/07/16 10:56:51;;;;;;;3.67;1.80;;;;;;;;;;5060978;28;20304;-84
2023/07/16 10:59:18;;;;;;;5.68;3.80;;;;;;;;;;5054075;28;20234;-83
2023/07/16 11:01:46;;;;;;;5.22;1.95;;;;;;;;;;5070881;28;20201;-86
2023/07/16 11:04:14;;;;;;;6.95;6.28;;;;;;;;;;5061973;28;20237;-82
2023/07/16 11:06:41;;;;;;;7.80;4.50;;;;;;;;;;5049401;28;20221;-84
2023/07/16 11:09:09;;;;;;;5.82;2.10;;;;;;;;;;5060655;28;20233;-82
2023/07/16 11:11:36;;;;;;;4.18;1.80;;;;;;;;;;5072215;28;20205;-82
2023/07/16 11:14:05;;;;;;;6.03;2.20;;;;;;;;;;5071553;28;20237;-81
2023/07/16 11:16:34;;;;;;;2.45;1.77;;;;;;;;;;5044560;28;20225;-82
2023/07/16 11:19:02;;;;;;;7.03;1.58;;;;;;;;;;5053329;28;20264;-81
2023/07/16 11:21:31;;;;;;;3.05;1.92;;;;;;;;;;5050726;28;20546;-82
2023/07/16 11:24:08;;;;;;;2.60;1.55;;;;;;;;;;5070926;28;20236;-81
2023/07/16 11:26:35;;;;;;;3.85;1.67;;;;;;;;;;5041358;28;20201;-82
2023/07/16 11:29:02;;;;;;;3.38;1.95;;;;;;;;;;5056803;28;20225;-82
2023/07/16 11:31:40;;;;;;;2.63;1.38;;;;;;;;;;5059159;28;20288;-82
2023/07/16 11:34:07;;;;;;;6.55;1.73;;;;;;;;;;5044790;28;20258;-83
2023/07/16 11:36:36;;;;;;;5.20;1.60;;;;;;;;;;5059490;28;20222;-82
2023/07/16 11:39:04;;;;;;;3.78;2.15;;;;;;;;;;5050969;28;20228;-82
2023/07/16 11:41:32;;;;;;;4.60;2.33;;;;;;;;;;5046575;28;20191;-83
2023/07/16 11:44:01;;;;;;;4.22;1.75;;;;;;;;;;5061514;28;20229;-83
2023/07/16 11:46:32;;;;;;;5.22;1.92;;;;;;;;;;5058824;28;20181;-82
2023/07/16 11:48:59;;;;;;;2.13;1.63;;;;;;;;;;5058526;28;20228;-84
2023/07/16 11:51:27;;;;;;;5.65;1.50;;;;;;;;;;5063240;28;20364;-84
2023/07/16 11:53:55;;;;;;;3.35;1.60;;;;;;;;;;5069193;28;20240;-81
2023/07/16 11:56:23;;;;;;;4.35;2.40;;;;;;;;;;5071392;28;20232;-82
2023/07/16 11:58:52;;;;;;;4.32;1.80;;;;;;;;;;5057569;28;20703;-85
2023/07/16 12:01:20;;;;;;;3.88;1.85;;;;;;;;;;5062413;28;20214;-84
2023/07/16 12:03:48;;;;;;;4.40;1.80;;;;;;;;;;5058066;28;20237;-84
2023/07/16 12:06:18;;;;;;;6.07;1.90;;;;;;;;;;5071292;28;20654;-85
2023/07/16 12:08:45;;;;;;;3.30;1.80;;;;;;;;;;5062150;28;20603;-82
2023/07/16 12:11:13;;;;;;;4.28;1.75;;;;;;;;;;5045364;28;20226;-85
2023/07/16 12:13:40;;;;;;;3.75;1.88;;;;;;;;;;5061831;28;20238;-84
2023/07/16 12:16:08;;;;;;;2.45;1.75;;;;;;;;;;5066021;28;20205;-84
2023/07/16 12:18:35;;;;;;;2.58;1.63;;;;;;;;;;5059988;28;20241;-86
2023/07/16 12:21:02;;;;;;;3.58;1.48;;;;;;;;;;5068612;28;20220;-89
2023/07/16 12:23:29;;;;;;;3.83;1.80;;;;;;;;;;5057898;28;20832;-85
2023/07/16 12:25:56;;;;;;;2.90;1.70;;;;;;;;;;5070424;28;20240;-83
2023/07/16 12:28:25;;;;;;;1.58;1.42;;;;;;;;;;5056721;28;20305;-84
2023/07/16 12:30:52;;;;;;;3.63;1.67;;;;;;;;;;5069803;28;20201;-82
2023/07/16 12:33:19;;;;;;;3.42;1.77;;;;;;;;;;5059870;28;20226;-84
2023/07/16 12:35:47;;;;;;;4.90;1.83;;;;;;;;;;5073712;28;20205;-85
2023/07/16 12:38:14;;;;;;;3.47;2.00;;;;;;;;;;5060917;28;20245;-86
2023/07/16 12:40:41;;;;;;;3.30;2.03;;;;;;;;;;5052365;28;20216;-84
2023/07/16 12:43:08;;;;;;;2.03;1.80;;;;;;;;;;5052344;28;20230;-88
2023/07/16 12:45:37;;;;;;;5.03;2.25;;;;;;;;;;5050288;28;20210;-85
2023/07/16 12:48:04;;;;;;;4.90;1.90;;;;;;;;;;5046736;28;20778;-85
2023/07/16 12:50:31;;;;;;;2.03;1.73;;;;;;;;;;5053005;28;20687;-84
2023/07/16 12:52:58;;;;;;;5.13;2.00;;;;;;;;;;5054307;28;20995;-87
2023/07/16 12:55:25;;;;;;;3.47;2.08;;;;;;;;;;5053614;28;20570;-86
2023/07/16 12:57:52;;;;;;;3.65;2.15;;;;;;;;;;5063377;28;20230;-87
2023/07/16 13:00:19;;;;;;;4.20;2.00;;;;;;;;;;5055402;28;20212;-85
2023/07/16 13:02:48;;;;;;;4.35;1.60;;;;;;;;;;5061522;28;20492;-85
2023/07/16 13:05:15;;;;;;;4.15;2.25;;;;;;;;;;5061265;28;20211;-88
2023/07/16 13:07:42;;;;;;;2.10;1.70;;;;;;;;;;5074026;28;20224;-86
2023/07/16 13:10:10;;;;;;;4.13;2.13;;;;;;;;;;5066425;28;20560;-85
2023/07/16 13:12:37;;;;;;;3.03;1.85;;;;;;;;;;5050299;28;20226;-84
2023/07/16 13:15:04;;;;;;;4.00;2.03;;;;;;;;;;5067306;28;20208;-87
2023/07/16 13:17:31;;;;;;;2.25;2.00;;;;;;;;;;5073134;28;20241;-88
2023/07/16 13:20:00;;;;;;;2.28;2.08;;;;;;;;;;5067417;28;20202;-89
2023/07/16 13:22:27;;;;;;;3.00;2.03;;;;;;;;;;5061649;28;20676;-87
2023/07/16 13:24:54;;;;;;;3.85;2.13;;;;;;;;;;5060274;28;20206;-84
2023/07/16 13:27:22;;;;;;;2.38;2.10;;;;;;;;;;5040704;28;20202;-87
2023/07/16 13:29:49;;;;;;;4.13;2.15;;;;;;;;;;5073377;28;20633;-88
2023/07/16 13:32:16;;;;;;;3.33;2.05;;;;;;;;;;5062364;28;20260;-84
2023/07/16 13:34:43;;;;;;;4.10;2.17;;;;;;;;;;5064684;28;20205;-86
2023/07/16 13:37:12;;;;;;;1.55;1.40;;;;;;;;;;5063625;28;20226;-84
2023/07/16 13:39:39;;;;;;;4.05;2.65;;;;;;;;;;5056819;28;20283;-84
2023/07/16 13:42:06;;;;;;;3.58;2.05;;;;;;;;;;5063977;28;20210;-86
2023/07/16 13:44:33;;;;;;;4.03;2.10;;;;;;;;;;5051601;28;20246;-85
2023/07/16 13:47:01;;;;;;;2.53;1.92;;;;;;;;;;5059830;28;20201;-86
2023/07/16 13:49:28;;;;;;;5.75;2.08;;;;;;;;;;5071541;28;20229;-87
2023/07/16 13:51:55;;;;;;;4.28;2.08;;;;;;;;;;5056478;28;20210;-88
2023/07/16 13:54:23;;;;;;;3.35;1.92;;;;;;;;;;5054356;28;20715;-88
2023/07/16 13:56:50;;;;;;;2.65;2.00;;;;;;;;;;5052930;28;20212;-87
2023/07/16 13:59:17;;;;;;;4.25;1.85;;;;;;;;;;5065100;28;20229;-86
2023/07/16 14:01:46;;;;;;;2.75;2.30;;;;;;;;;;5066748;28;20212;-85
2023/07/16 14:04:13;;;;;;;2.67;2.25;;;;;;;;;;5042565;28;20629;-86
2023/07/16 14:06:40;;;;;;;4.93;2.40;;;;;;;;;;5065909;28;20198;-88
2023/07/16 14:09:07;;;;;;;2.85;1.95;;;;;;;;;;5074016;28;20233;-87
2023/07/16 14:11:35;;;;;;;5.70;2.95;;;;;;;;;;5066435;28;20206;-84
2023/07/16 14:14:02;;;;;;;4.13;2.08;;;;;;;;;;5073961;28;20613;-87
2023/07/16 14:16:29;;;;;;;4.05;2.42;;;;;;;;;;5070419;28;20718;-87
2023/07/16 14:18:56;;;;;;;3.03;2.50;;;;;;;;;;5060376;28;20242;-85
2023/07/16 14:21:25;;;;;;;2.85;2.20;;;;;;;;;;5066859;28;20221;-85
2023/07/16 14:23:52;;;;;;;2.63;2.35;;;;;;;;;;5059068;28;20239;-88
2023/07/16 14:26:19;;;;;;;3.40;2.65;;;;;;;;;;5053074;28;20206;-86
2023/07/16 14:28:48;;;;;;;3.30;2.20;;;;;;;;;;5053787;28;20715;-88
2023/07/16 14:31:15;;;;;;;2.58;2.30;;;;;;;;;;5058188;28;20214;-87
2023/07/16 14:33:42;;;;;;;4.03;2.20;;;;;;;;;;5045392;28;20233;-88
2023/07/16 14:36:09;;;;;;;2.47;2.28;;;;;;;;;;5060267;28;20212;-87
2023/07/16 14:38:36;;;;;;;3.08;2.45;;;;;;;;;;5072511;28;20721;-85
2023/07/16 14:41:04;;;;;;;2.92;2.28;;;;;;;;;;5067856;28;20198;-88
2023/07/16 14:43:31;;;;;;;8.43;2.42;;;;;;;;;;5064496;28;20324;-88
2023/07/16 14:45:59;;;;;;;3.30;2.33;;;;;;;;;;5064698;28;20208;-88
2023/07/16 14:48:27;;;;;;;5.22;2.78;;;;;;;;;;5054289;28;20252;-88